Time;durP1;ratioP1;P1;durP2;ratioP2;P2;SDS_P1;SDS_P2;PMS_P1;PMS_P2;Temp;Humidity;BMP_temperature;BMP_pressure;BME280_temperature;BME280_humidity;BME280_pressure;Samples;Min_cycle;Max_cycle;Signal;HPM_P1;HPM_P2
2024/01/09 00:01:07;;;;;;;19.97;8.63;;;;;;;;;;4986165;28;20038;-82
2024/01/09 00:03:32;;;;;;;20.23;8.47;;;;;;;;;;4989698;28;20038;-84
2024/01/09 00:05:58;;;;;;;21.20;8.37;;;;;;;;;;5001598;28;20034;-84
2024/01/09 00:08:23;;;;;;;20.23;8.83;;;;;;;;;;4991799;28;20037;-83
2024/01/09 00:10:48;;;;;;;19.73;8.27;;;;;;;;;;4993447;28;20040;-83
2024/01/09 00:13:13;;;;;;;20.47;7.67;;;;;;;;;;4988978;28;20038;-83
2024/01/09 00:15:38;;;;;;;22.73;9.67;;;;;;;;;;4989041;28;20105;-84
2024/01/09 00:18:04;;;;;;;20.03;8.83;;;;;;;;;;4997189;28;20026;-83
2024/01/09 00:20:29;;;;;;;18.33;8.20;;;;;;;;;;4995461;28;20065;-83
2024/01/09 00:22:54;;;;;;;21.07;8.43;;;;;;;;;;4992213;28;20472;-83
2024/01/09 00:25:19;;;;;;;24.87;9.53;;;;;;;;;;4991394;28;20046;-84
2024/01/09 00:27:45;;;;;;;23.53;8.77;;;;;;;;;;5006820;28;20038;-84
2024/01/09 00:30:11;;;;;;;20.97;8.67;;;;;;;;;;5005350;28;20022;-85
2024/01/09 00:32:36;;;;;;;21.50;9.23;;;;;;;;;;4994712;28;20505;-84
2024/01/09 00:35:01;;;;;;;20.83;9.60;;;;;;;;;;4994569;28;20566;-82
2024/01/09 00:37:26;;;;;;;26.40;9.87;;;;;;;;;;4990094;28;20042;-82
2024/01/09 00:39:52;;;;;;;22.03;9.27;;;;;;;;;;4992146;28;20034;-82
2024/01/09 00:42:17;;;;;;;19.30;8.33;;;;;;;;;;4990757;28;20049;-81
2024/01/09 00:44:42;;;;;;;22.57;9.17;;;;;;;;;;4988968;28;20062;-81
2024/01/09 00:47:07;;;;;;;22.67;9.10;;;;;;;;;;4994310;28;20030;-81
2024/01/09 00:49:33;;;;;;;20.83;8.60;;;;;;;;;;4992872;28;20148;-81
2024/01/09 00:51:58;;;;;;;23.10;9.10;;;;;;;;;;4990102;28;20026;-81
2024/01/09 00:54:23;;;;;;;24.90;10.13;;;;;;;;;;4986357;28;20479;-81
2024/01/09 00:56:48;;;;;;;23.10;10.40;;;;;;;;;;4987907;28;20066;-82
2024/01/09 00:59:13;;;;;;;24.57;9.13;;;;;;;;;;4997155;28;20064;-81
2024/01/09 01:01:39;;;;;;;24.07;10.30;;;;;;;;;;4993556;28;20038;-82
2024/01/09 01:04:04;;;;;;;24.40;10.17;;;;;;;;;;4992321;28;20034;-81
2024/01/09 01:06:29;;;;;;;24.50;9.47;;;;;;;;;;4991664;28;20089;-81
2024/01/09 01:08:54;;;;;;;23.17;10.03;;;;;;;;;;4989739;28;20022;-82
2024/01/09 01:11:19;;;;;;;23.87;9.50;;;;;;;;;;4989635;28;20093;-81
2024/01/09 01:13:45;;;;;;;29.10;10.43;;;;;;;;;;4993720;28;20415;-82
2024/01/09 01:16:10;;;;;;;23.63;9.80;;;;;;;;;;5002593;28;20475;-82
2024/01/09 01:18:35;;;;;;;24.87;9.87;;;;;;;;;;4989250;28;20114;-82
2024/01/09 01:21:00;;;;;;;29.67;10.70;;;;;;;;;;4989150;28;20106;-81
2024/01/09 01:23:26;;;;;;;25.53;9.47;;;;;;;;;;4989138;28;20185;-81
2024/01/09 01:25:51;;;;;;;26.57;10.60;;;;;;;;;;4991130;28;20041;-82
2024/01/09 01:28:16;;;;;;;24.30;10.27;;;;;;;;;;4995343;28;20027;-81
2024/01/09 01:30:41;;;;;;;27.47;11.17;;;;;;;;;;4992588;28;20031;-81
2024/01/09 01:33:07;;;;;;;29.63;11.60;;;;;;;;;;4990820;28;20031;-81
2024/01/09 01:35:32;;;;;;;28.40;11.03;;;;;;;;;;4988753;28;20031;-82
2024/01/09 01:37:57;;;;;;;25.83;10.13;;;;;;;;;;4991667;28;20124;-83
2024/01/09 01:40:22;;;;;;;28.37;10.80;;;;;;;;;;5006420;28;20037;-82
2024/01/09 01:42:48;;;;;;;25.57;11.00;;;;;;;;;;4991622;28;20050;-82
2024/01/09 01:45:21;;;;;;;23.80;10.23;;;;;;;;;;4993476;28;20030;-83
2024/01/09 01:47:46;;;;;;;25.53;9.77;;;;;;;;;;4992206;28;20101;-84
2024/01/09 01:50:12;;;;;;;28.73;10.70;;;;;;;;;;4991802;28;20534;-83
2024/01/09 01:52:38;;;;;;;25.30;10.80;;;;;;;;;;4985175;28;20033;-83
2024/01/09 01:55:04;;;;;;;28.10;10.30;;;;;;;;;;4994005;28;20026;-83
2024/01/09 01:57:29;;;;;;;22.63;9.50;;;;;;;;;;4991778;28;20052;-83
2024/01/09 01:59:57;;;;;;;22.77;9.53;;;;;;;;;;5007186;28;20030;-83
2024/01/09 02:02:22;;;;;;;26.70;10.03;;;;;;;;;;5006465;28;20038;-83
2024/01/09 02:04:47;;;;;;;24.33;9.50;;;;;;;;;;5002852;28;20046;-83
2024/01/09 02:07:12;;;;;;;23.00;9.27;;;;;;;;;;4991509;28;20037;-83
2024/01/09 02:09:38;;;;;;;23.87;9.67;;;;;;;;;;4993941;28;20078;-84
2024/01/09 02:22:59;;;;;;;26.87;11.20;;;;;;;;;;4994064;28;20024;-83
2024/01/09 02:25:24;;;;;;;29.27;11.60;;;;;;;;;;4989344;28;20545;-83
2024/01/09 02:28:08;;;;;;;28.53;12.20;;;;;;;;;;4989931;28;20035;-83
2024/01/09 02:30:33;;;;;;;28.63;12.13;;;;;;;;;;4988688;28;20494;-83
2024/01/09 02:32:59;;;;;;;29.07;11.97;;;;;;;;;;4990393;28;20034;-83
2024/01/09 02:35:24;;;;;;;30.60;12.67;;;;;;;;;;5003446;28;20038;-83
2024/01/09 02:37:49;;;;;;;26.70;11.87;;;;;;;;;;4988241;28;20049;-82
2024/01/09 02:40:15;;;;;;;31.90;12.00;;;;;;;;;;4999089;28;20058;-82
2024/01/09 02:42:40;;;;;;;28.67;12.40;;;;;;;;;;5003767;28;20022;-82
2024/01/09 02:45:05;;;;;;;28.23;12.03;;;;;;;;;;5001074;28;20395;-82
2024/01/09 02:47:30;;;;;;;32.17;12.10;;;;;;;;;;5004054;28;20031;-83
2024/01/09 02:49:55;;;;;;;30.20;12.00;;;;;;;;;;4989467;28;20026;-82
2024/01/09 02:52:20;;;;;;;29.17;12.80;;;;;;;;;;5000931;28;20026;-83
2024/01/09 02:54:46;;;;;;;29.70;12.77;;;;;;;;;;4989880;28;20511;-83
2024/01/09 02:57:11;;;;;;;28.77;12.10;;;;;;;;;;4988385;28;20030;-83
2024/01/09 02:59:37;;;;;;;28.00;12.57;;;;;;;;;;4991223;28;20041;-83
2024/01/09 03:02:02;;;;;;;28.10;11.97;;;;;;;;;;4987303;28;20038;-82
2024/01/09 03:04:27;;;;;;;35.77;12.90;;;;;;;;;;4993070;28;20084;-83
2024/01/09 03:06:53;;;;;;;36.60;13.47;;;;;;;;;;5005548;28;20038;-83
2024/01/09 03:09:18;;;;;;;30.47;12.57;;;;;;;;;;4989902;28;20105;-82
2024/01/09 03:11:43;;;;;;;31.03;12.57;;;;;;;;;;4986485;28;20031;-82
2024/01/09 03:14:09;;;;;;;31.43;13.10;;;;;;;;;;4991959;28;20507;-82
2024/01/09 03:16:34;;;;;;;34.20;12.50;;;;;;;;;;4988466;28;20081;-83
2024/01/09 03:18:59;;;;;;;31.57;11.90;;;;;;;;;;4992543;28;20041;-83
2024/01/09 03:21:24;;;;;;;31.67;11.77;;;;;;;;;;4990359;28;20073;-81
2024/01/09 03:23:49;;;;;;;33.37;14.10;;;;;;;;;;4988174;28;20042;-81
2024/01/09 03:26:14;;;;;;;30.40;12.67;;;;;;;;;;4987574;28;20089;-81
2024/01/09 03:28:40;;;;;;;30.90;13.63;;;;;;;;;;4990132;28;20038;-81
2024/01/09 03:31:05;;;;;;;38.77;14.00;;;;;;;;;;5004265;28;20030;-81
2024/01/09 03:33:30;;;;;;;32.57;12.67;;;;;;;;;;4991341;28;20061;-81
2024/01/09 03:35:56;;;;;;;30.10;13.07;;;;;;;;;;4992299;28;20027;-82
2024/01/09 03:38:21;;;;;;;33.10;13.07;;;;;;;;;;4989874;28;20049;-81
2024/01/09 03:40:46;;;;;;;32.13;12.90;;;;;;;;;;4992952;28;20038;-81
2024/01/09 03:43:12;;;;;;;28.23;12.07;;;;;;;;;;4991140;28;20406;-82
2024/01/09 03:45:37;;;;;;;37.57;13.83;;;;;;;;;;4993960;28;20036;-82
2024/01/09 03:48:02;;;;;;;29.37;12.10;;;;;;;;;;4994583;28;20041;-82
2024/01/09 03:50:27;;;;;;;35.63;12.80;;;;;;;;;;4994839;28;20117;-82
2024/01/09 03:52:52;;;;;;;34.30;13.50;;;;;;;;;;4990738;28;20062;-82
2024/01/09 03:55:18;;;;;;;35.03;15.67;;;;;;;;;;4990713;28;20395;-82
2024/01/09 03:57:43;;;;;;;32.33;12.33;;;;;;;;;;5002536;28;20533;-82
2024/01/09 04:00:09;;;;;;;34.30;13.80;;;;;;;;;;4998299;28;20026;-82
2024/01/09 04:02:34;;;;;;;34.40;13.40;;;;;;;;;;4995562;28;20069;-82
2024/01/09 04:04:59;;;;;;;34.40;15.03;;;;;;;;;;4991339;28;20022;-82
2024/01/09 04:07:25;;;;;;;32.97;14.27;;;;;;;;;;4990863;28;20467;-83
2024/01/09 04:09:50;;;;;;;37.67;14.50;;;;;;;;;;4989692;28;20043;-83
2024/01/09 04:12:15;;;;;;;36.27;14.97;;;;;;;;;;5004250;28;20029;-82
2024/01/09 04:14:40;;;;;;;36.37;14.23;;;;;;;;;;4994401;28;20100;-83
2024/01/09 04:17:05;;;;;;;31.93;14.33;;;;;;;;;;4995679;28;20098;-82
2024/01/09 04:19:30;;;;;;;38.80;14.63;;;;;;;;;;4990922;28;20042;-82
2024/01/09 04:21:56;;;;;;;33.37;12.60;;;;;;;;;;5005801;28;20034;-82
2024/01/09 04:24:21;;;;;;;38.50;14.57;;;;;;;;;;4988032;28;20371;-82
2024/01/09 04:26:46;;;;;;;34.07;13.67;;;;;;;;;;5008315;28;20505;-83
2024/01/09 04:29:11;;;;;;;38.30;15.43;;;;;;;;;;5004412;28;20080;-82
2024/01/09 04:31:36;;;;;;;36.23;15.93;;;;;;;;;;4992846;28;20038;-83
2024/01/09 04:34:02;;;;;;;34.63;13.73;;;;;;;;;;4991855;28;20026;-82
2024/01/09 04:36:27;;;;;;;43.77;17.63;;;;;;;;;;4994615;28;20549;-82
2024/01/09 04:38:52;;;;;;;38.00;15.00;;;;;;;;;;4992718;28;20034;-83
2024/01/09 04:41:18;;;;;;;34.03;13.67;;;;;;;;;;4994881;28;20121;-83
2024/01/09 04:43:44;;;;;;;42.67;15.63;;;;;;;;;;5004754;28;20088;-83
2024/01/09 04:46:10;;;;;;;40.83;14.70;;;;;;;;;;4991928;28;20041;-82
2024/01/09 04:48:35;;;;;;;34.20;14.30;;;;;;;;;;5005425;28;20034;-83
2024/01/09 04:51:00;;;;;;;37.80;14.97;;;;;;;;;;4988215;28;20113;-82
2024/01/09 04:53:25;;;;;;;40.43;16.67;;;;;;;;;;5000920;28;20081;-83
2024/01/09 04:55:51;;;;;;;39.07;15.80;;;;;;;;;;4993594;28;20461;-82
2024/01/09 04:58:16;;;;;;;36.10;15.17;;;;;;;;;;4994951;28;20038;-83
2024/01/09 05:00:41;;;;;;;37.97;16.47;;;;;;;;;;4990544;28;20114;-84
2024/01/09 05:03:07;;;;;;;47.60;17.97;;;;;;;;;;4990476;28;20026;-83
2024/01/09 05:05:32;;;;;;;43.23;16.70;;;;;;;;;;5004816;28;20092;-84
2024/01/09 05:07:57;;;;;;;40.67;15.77;;;;;;;;;;5006042;28;20084;-82
2024/01/09 05:10:22;;;;;;;38.77;16.47;;;;;;;;;;4994569;28;20034;-83
2024/01/09 05:12:47;;;;;;;37.07;15.27;;;;;;;;;;5006682;28;20444;-83
2024/01/09 05:15:12;;;;;;;41.80;16.30;;;;;;;;;;5002178;28;20038;-83
2024/01/09 05:17:38;;;;;;;36.63;15.10;;;;;;;;;;4991853;28;20456;-83
2024/01/09 05:20:03;;;;;;;41.10;15.33;;;;;;;;;;4987485;28;20038;-83
2024/01/09 05:22:29;;;;;;;40.77;17.33;;;;;;;;;;4994519;28;20086;-83
2024/01/09 05:24:54;;;;;;;45.30;17.37;;;;;;;;;;4991769;28;20034;-82
2024/01/09 05:27:19;;;;;;;49.10;20.83;;;;;;;;;;4992190;28;20475;-82
2024/01/09 05:29:44;;;;;;;45.33;18.13;;;;;;;;;;4986034;28;20034;-81
2024/01/09 05:32:09;;;;;;;42.90;17.97;;;;;;;;;;4986702;28;20030;-82
2024/01/09 05:34:35;;;;;;;46.10;19.13;;;;;;;;;;5000791;28;20094;-82
2024/01/09 05:37:00;;;;;;;35.90;15.33;;;;;;;;;;4990738;28;20038;-82
2024/01/09 05:39:25;;;;;;;41.87;16.23;;;;;;;;;;4990159;28;20030;-82
2024/01/09 05:41:50;;;;;;;41.97;17.57;;;;;;;;;;5005376;28;20035;-83
2024/01/09 05:44:15;;;;;;;35.77;15.17;;;;;;;;;;5004072;28;20062;-82
2024/01/09 05:46:41;;;;;;;40.10;17.17;;;;;;;;;;5000669;28;20027;-82
2024/01/09 05:49:06;;;;;;;36.60;14.50;;;;;;;;;;5002678;28;20497;-81
2024/01/09 05:51:32;;;;;;;47.87;17.13;;;;;;;;;;5006914;28;20053;-81
2024/01/09 05:53:57;;;;;;;42.40;19.03;;;;;;;;;;4991254;28;20097;-81
2024/01/09 05:56:22;;;;;;;47.73;18.80;;;;;;;;;;4991060;28;20030;-81
2024/01/09 05:58:47;;;;;;;45.43;18.07;;;;;;;;;;4989000;28;20066;-82
2024/01/09 06:01:12;;;;;;;45.00;16.37;;;;;;;;;;4989140;28;20076;-82
2024/01/09 06:03:38;;;;;;;52.47;19.30;;;;;;;;;;4996376;28;20057;-82
2024/01/09 06:06:03;;;;;;;55.50;19.63;;;;;;;;;;4989918;28;20054;-82
2024/01/09 06:08:28;;;;;;;46.13;17.87;;;;;;;;;;4998440;28;20035;-82
2024/01/09 06:10:53;;;;;;;51.23;19.00;;;;;;;;;;4986635;28;20035;-82
2024/01/09 06:13:18;;;;;;;40.70;17.20;;;;;;;;;;4987727;28;20030;-82
2024/01/09 06:15:44;;;;;;;42.37;18.03;;;;;;;;;;4997326;28;20105;-82
2024/01/09 06:18:09;;;;;;;43.77;16.83;;;;;;;;;;4987930;28;20470;-82
2024/01/09 06:20:34;;;;;;;48.00;17.90;;;;;;;;;;4990400;28;20038;-82
2024/01/09 06:22:59;;;;;;;43.83;16.83;;;;;;;;;;4990239;28;20038;-82
2024/01/09 06:25:24;;;;;;;43.27;17.40;;;;;;;;;;5002004;28;20034;-82
2024/01/09 06:27:50;;;;;;;46.43;17.53;;;;;;;;;;5000601;28;20034;-81
2024/01/09 06:30:15;;;;;;;41.67;17.37;;;;;;;;;;4987491;28;20037;-82
2024/01/09 06:32:41;;;;;;;45.90;18.30;;;;;;;;;;4995285;28;20035;-82
2024/01/09 06:35:06;;;;;;;45.37;17.53;;;;;;;;;;4988065;28;20403;-82
2024/01/09 06:37:31;;;;;;;47.50;18.83;;;;;;;;;;4985327;28;20057;-81
2024/01/09 06:39:56;;;;;;;46.23;18.70;;;;;;;;;;4988547;28;20023;-81
2024/01/09 06:42:22;;;;;;;42.53;17.53;;;;;;;;;;4999458;28;20109;-81
2024/01/09 06:44:47;;;;;;;49.83;17.27;;;;;;;;;;4984590;28;20048;-82
2024/01/09 06:47:12;;;;;;;41.67;16.80;;;;;;;;;;4991028;28;20022;-81
2024/01/09 06:49:37;;;;;;;40.47;16.20;;;;;;;;;;4990414;28;20380;-82
2024/01/09 06:52:03;;;;;;;43.90;17.30;;;;;;;;;;4996796;28;20050;-81
2024/01/09 06:54:28;;;;;;;47.93;18.43;;;;;;;;;;5000484;28;20039;-81
2024/01/09 06:56:53;;;;;;;45.37;17.37;;;;;;;;;;4990024;28;20126;-82
2024/01/09 06:59:18;;;;;;;45.03;17.17;;;;;;;;;;5006702;28;20415;-82
2024/01/09 07:01:43;;;;;;;44.20;17.57;;;;;;;;;;5005913;28;20042;-82
2024/01/09 07:04:08;;;;;;;46.07;17.53;;;;;;;;;;4989370;28;20038;-82
2024/01/09 07:06:34;;;;;;;47.10;18.70;;;;;;;;;;4989346;28;20046;-82
2024/01/09 07:08:59;;;;;;;53.50;19.70;;;;;;;;;;5002019;28;20030;-82
2024/01/09 07:11:24;;;;;;;45.13;17.87;;;;;;;;;;4998742;28;20555;-82
2024/01/09 07:13:49;;;;;;;49.80;18.40;;;;;;;;;;4985771;28;20503;-81
2024/01/09 07:16:15;;;;;;;42.67;17.87;;;;;;;;;;4989971;28;20023;-81
2024/01/09 07:18:40;;;;;;;42.53;16.67;;;;;;;;;;4988433;28;20026;-82
2024/01/09 07:21:05;;;;;;;44.33;19.03;;;;;;;;;;4995948;28;20376;-82
2024/01/09 07:23:30;;;;;;;49.67;18.87;;;;;;;;;;4988860;28;20081;-82
2024/01/09 07:25:55;;;;;;;51.53;18.70;;;;;;;;;;4988580;28;20038;-82
2024/01/09 07:28:21;;;;;;;48.60;19.50;;;;;;;;;;4994100;28;20022;-82
2024/01/09 07:30:46;;;;;;;48.40;19.17;;;;;;;;;;4994282;28;20030;-82
2024/01/09 07:33:11;;;;;;;47.93;20.23;;;;;;;;;;4986333;28;20399;-82
2024/01/09 07:35:37;;;;;;;54.10;19.80;;;;;;;;;;5008165;28;20514;-82
2024/01/09 07:38:03;;;;;;;53.13;20.03;;;;;;;;;;4983357;28;20038;-82
2024/01/09 07:40:28;;;;;;;46.07;19.80;;;;;;;;;;5006092;28;20457;-82
2024/01/09 07:42:58;;;;;;;50.93;19.73;;;;;;;;;;4993493;28;20567;-82
2024/01/09 07:45:24;;;;;;;50.23;17.97;;;;;;;;;;4988090;28;20023;-81
2024/01/09 07:47:50;;;;;;;43.60;18.47;;;;;;;;;;5005637;28;20038;-82
2024/01/09 07:50:15;;;;;;;45.90;19.37;;;;;;;;;;4987092;28;20030;-82
2024/01/09 07:52:40;;;;;;;46.33;19.03;;;;;;;;;;4986695;28;20042;-82
2024/01/09 07:55:05;;;;;;;56.87;20.83;;;;;;;;;;4981972;28;20122;-81
2024/01/09 07:57:30;;;;;;;53.70;21.57;;;;;;;;;;4989608;28;20035;-82
2024/01/09 07:59:56;;;;;;;47.40;19.03;;;;;;;;;;5005543;28;20044;-82
2024/01/09 08:02:21;;;;;;;50.33;19.67;;;;;;;;;;4990457;28;20027;-82
2024/01/09 08:04:47;;;;;;;49.17;21.20;;;;;;;;;;4984783;28;20039;-82
2024/01/09 08:07:12;;;;;;;54.27;20.77;;;;;;;;;;4986852;28;20434;-82
2024/01/09 08:09:37;;;;;;;53.40;19.63;;;;;;;;;;4999568;28;20034;-81
2024/01/09 08:12:03;;;;;;;52.83;21.07;;;;;;;;;;5008621;28;20022;-81
2024/01/09 08:14:28;;;;;;;49.53;21.50;;;;;;;;;;4999341;28;20037;-82
2024/01/09 08:16:53;;;;;;;54.40;21.97;;;;;;;;;;5004888;28;20038;-81
2024/01/09 08:19:19;;;;;;;58.27;22.90;;;;;;;;;;4987478;28;20503;-82
2024/01/09 08:21:44;;;;;;;57.00;22.60;;;;;;;;;;4989210;28;20058;-82
2024/01/09 08:24:17;;;;;;;50.50;20.00;;;;;;;;;;4993018;28;20038;-81
2024/01/09 08:26:45;;;;;;;49.17;19.83;;;;;;;;;;4991163;28;20081;-81
2024/01/09 08:29:10;;;;;;;53.97;20.73;;;;;;;;;;4998869;28;20027;-81
2024/01/09 08:31:41;;;;;;;52.00;22.50;;;;;;;;;;4990845;28;20030;-81
2024/01/09 08:34:07;;;;;;;55.97;20.83;;;;;;;;;;4986505;28;20045;-82
2024/01/09 08:36:32;;;;;;;56.57;21.13;;;;;;;;;;4987543;28;20038;-82
2024/01/09 08:38:57;;;;;;;52.70;21.17;;;;;;;;;;4991974;28;20162;-82
2024/01/09 08:41:22;;;;;;;59.17;20.80;;;;;;;;;;4991714;28;20030;-81
2024/01/09 08:43:47;;;;;;;57.90;23.63;;;;;;;;;;4988569;28;20121;-82
2024/01/09 08:46:12;;;;;;;53.53;21.60;;;;;;;;;;4977078;28;20141;-82
2024/01/09 08:48:38;;;;;;;55.70;22.67;;;;;;;;;;4984070;28;20085;-82
2024/01/09 08:51:03;;;;;;;54.27;22.20;;;;;;;;;;4989918;28;20034;-82
2024/01/09 08:53:29;;;;;;;59.27;22.33;;;;;;;;;;4992990;28;20030;-82
2024/01/09 08:55:55;;;;;;;60.33;23.83;;;;;;;;;;5006059;28;20414;-82
2024/01/09 08:58:20;;;;;;;52.00;20.93;;;;;;;;;;4991068;28;20045;-82
2024/01/09 09:00:45;;;;;;;58.57;23.87;;;;;;;;;;4986582;28;20043;-82
2024/01/09 09:03:10;;;;;;;54.83;22.73;;;;;;;;;;4990516;28;20033;-82
2024/01/09 09:05:36;;;;;;;58.53;23.37;;;;;;;;;;4991134;28;20435;-82
2024/01/09 09:08:01;;;;;;;55.53;23.17;;;;;;;;;;4991484;28;20023;-82
2024/01/09 09:10:26;;;;;;;60.07;23.33;;;;;;;;;;4992271;28;20041;-82
2024/01/09 09:12:51;;;;;;;61.33;21.70;;;;;;;;;;4996041;28;20015;-82
2024/01/09 09:15:16;;;;;;;54.67;21.90;;;;;;;;;;4998673;28;20105;-81
2024/01/09 09:17:41;;;;;;;59.60;23.73;;;;;;;;;;5003797;28;20041;-83
2024/01/09 09:20:08;;;;;;;70.30;27.20;;;;;;;;;;4987076;28;20050;-84
2024/01/09 09:22:35;;;;;;;73.40;30.03;;;;;;;;;;5002210;28;20045;-81
2024/01/09 09:25:00;;;;;;;63.90;26.93;;;;;;;;;;4989557;28;20034;-81
2024/01/09 09:27:26;;;;;;;56.07;22.97;;;;;;;;;;5000634;28;20681;-81
2024/01/09 09:29:52;;;;;;;54.47;22.37;;;;;;;;;;4988388;28;20080;-82
2024/01/09 09:32:17;;;;;;;56.30;23.57;;;;;;;;;;4989439;28;20035;-81
2024/01/09 09:34:43;;;;;;;63.70;24.50;;;;;;;;;;4989826;28;20740;-81
2024/01/09 09:37:08;;;;;;;56.90;24.33;;;;;;;;;;4990829;28;20170;-80
2024/01/09 09:39:34;;;;;;;53.50;22.40;;;;;;;;;;4987636;28;20121;-81
2024/01/09 09:41:59;;;;;;;54.70;21.23;;;;;;;;;;4986237;28;20094;-81
2024/01/09 09:44:25;;;;;;;51.77;23.13;;;;;;;;;;5003760;28;20542;-81
2024/01/09 09:46:51;;;;;;;59.93;23.83;;;;;;;;;;4986389;28;20387;-81
2024/01/09 09:49:17;;;;;;;57.50;24.40;;;;;;;;;;4990619;28;20030;-81
2024/01/09 09:51:43;;;;;;;59.43;23.60;;;;;;;;;;4987763;28;20030;-82
2024/01/09 09:54:08;;;;;;;59.40;24.80;;;;;;;;;;4990501;28;20046;-81
2024/01/09 09:56:34;;;;;;;52.47;24.27;;;;;;;;;;4986771;28;20410;-81
2024/01/09 09:58:59;;;;;;;64.53;23.70;;;;;;;;;;4992187;28;20060;-81
2024/01/09 10:01:26;;;;;;;59.00;24.47;;;;;;;;;;5003411;28;20022;-81
2024/01/09 10:04:02;;;;;;;61.87;25.57;;;;;;;;;;4990344;28;20027;-81
2024/01/09 10:06:27;;;;;;;53.93;21.87;;;;;;;;;;4987436;28;20038;-81
2024/01/09 10:08:53;;;;;;;50.10;22.70;;;;;;;;;;4986779;28;20034;-81
2024/01/09 10:11:19;;;;;;;59.73;25.73;;;;;;;;;;4987210;28;20034;-81
2024/01/09 10:13:44;;;;;;;57.03;22.63;;;;;;;;;;4997834;28;20034;-81
2024/01/09 10:16:09;;;;;;;52.27;22.40;;;;;;;;;;4999527;28;20038;-81
2024/01/09 10:18:35;;;;;;;52.37;23.80;;;;;;;;;;4988954;28;20034;-81
2024/01/09 10:21:01;;;;;;;57.13;24.97;;;;;;;;;;5002794;28;20030;-81
2024/01/09 10:23:26;;;;;;;54.30;23.37;;;;;;;;;;4984386;28;20031;-81
2024/01/09 10:25:52;;;;;;;50.53;22.57;;;;;;;;;;4983295;28;20039;-81
2024/01/09 10:28:17;;;;;;;54.83;23.53;;;;;;;;;;5005984;28;20034;-81
2024/01/09 10:30:43;;;;;;;54.87;22.83;;;;;;;;;;4989768;28;20034;-81
2024/01/09 10:33:12;;;;;;;55.17;22.97;;;;;;;;;;4982113;28;20050;-80
2024/01/09 10:35:37;;;;;;;50.67;21.73;;;;;;;;;;4983620;28;20563;-81
2024/01/09 10:38:03;;;;;;;51.83;24.07;;;;;;;;;;4984032;28;20121;-81
2024/01/09 10:40:28;;;;;;;57.43;22.87;;;;;;;;;;4989060;28;20384;-81
2024/01/09 10:42:53;;;;;;;48.23;21.60;;;;;;;;;;4987079;28;20069;-80
2024/01/09 10:45:21;;;;;;;52.10;22.47;;;;;;;;;;4984081;28;20046;-81
2024/01/09 10:47:47;;;;;;;49.63;20.57;;;;;;;;;;5004204;28;20031;-81
2024/01/09 10:50:13;;;;;;;52.77;22.07;;;;;;;;;;4989797;28;20028;-81
2024/01/09 10:52:40;;;;;;;56.10;23.50;;;;;;;;;;4987039;28;20509;-81
2024/01/09 10:55:06;;;;;;;45.10;21.17;;;;;;;;;;4984245;28;20034;-81
2024/01/09 10:57:31;;;;;;;52.60;21.50;;;;;;;;;;4993740;28;20054;-79
2024/01/09 10:59:57;;;;;;;58.87;24.23;;;;;;;;;;4990406;28;20042;-80
2024/01/09 11:02:25;;;;;;;62.67;26.43;;;;;;;;;;4988188;28;20026;-80
2024/01/09 11:04:59;;;;;;;56.17;23.97;;;;;;;;;;5004724;28;20573;-81
2024/01/09 11:07:26;;;;;;;53.93;22.40;;;;;;;;;;5011797;28;20025;-80
2024/01/09 11:09:51;;;;;;;49.43;22.63;;;;;;;;;;5006624;28;20407;-81
2024/01/09 11:12:28;;;;;;;51.67;23.40;;;;;;;;;;4994599;28;20026;-80
2024/01/09 11:14:57;;;;;;;49.43;22.07;;;;;;;;;;4990718;28;20046;-80
2024/01/09 11:17:24;;;;;;;48.73;20.97;;;;;;;;;;4971342;28;20034;-80
2024/01/09 11:19:50;;;;;;;51.13;21.80;;;;;;;;;;4979066;28;20069;-81
2024/01/09 11:22:16;;;;;;;42.67;19.73;;;;;;;;;;4967949;28;20042;-79
2024/01/09 11:24:44;;;;;;;51.20;21.30;;;;;;;;;;4993716;28;20491;-79
2024/01/09 11:27:10;;;;;;;51.80;21.47;;;;;;;;;;4968162;28;20038;-79
2024/01/09 11:29:52;;;;;;;44.47;20.37;;;;;;;;;;4982311;28;20053;-78
2024/01/09 11:32:18;;;;;;;50.50;21.90;;;;;;;;;;4970731;28;20030;-80
2024/01/09 11:34:44;;;;;;;53.00;22.80;;;;;;;;;;4993314;28;20057;-80
2024/01/09 11:37:13;;;;;;;48.47;19.97;;;;;;;;;;4993817;28;20033;-79
2024/01/09 11:39:39;;;;;;;48.33;21.00;;;;;;;;;;4991995;28;20034;-79
2024/01/09 11:42:05;;;;;;;49.87;22.17;;;;;;;;;;4993334;28;20096;-79
2024/01/09 11:44:30;;;;;;;42.67;18.43;;;;;;;;;;4990236;28;20129;-78
2024/01/09 11:46:55;;;;;;;41.03;18.20;;;;;;;;;;4993266;28;20030;-79
2024/01/09 11:49:20;;;;;;;42.27;18.20;;;;;;;;;;4969179;28;20729;-79
2024/01/09 11:51:45;;;;;;;45.50;21.53;;;;;;;;;;4980978;28;20026;-81
2024/01/09 11:54:12;;;;;;;42.03;18.63;;;;;;;;;;4985789;28;20026;-80
2024/01/09 11:56:38;;;;;;;41.00;18.27;;;;;;;;;;4989926;28;20098;-80
2024/01/09 11:59:03;;;;;;;42.17;19.53;;;;;;;;;;4988816;28;20077;-79
2024/01/09 12:01:28;;;;;;;74.87;31.77;;;;;;;;;;4967096;28;20042;-81
2024/01/09 12:03:54;;;;;;;47.40;21.97;;;;;;;;;;4960534;28;20038;-81
2024/01/09 12:06:23;;;;;;;45.30;19.80;;;;;;;;;;4982822;28;20026;-81
2024/01/09 12:08:49;;;;;;;44.80;20.63;;;;;;;;;;4986797;28;20030;-81
2024/01/09 12:11:14;;;;;;;39.00;18.87;;;;;;;;;;4983785;28;20065;-82
2024/01/09 12:13:40;;;;;;;50.67;20.80;;;;;;;;;;4980837;28;20395;-81
2024/01/09 12:16:22;;;;;;;41.77;20.03;;;;;;;;;;4990028;28;20096;-81
2024/01/09 12:18:52;;;;;;;42.30;19.80;;;;;;;;;;4961927;28;20404;-81
2024/01/09 12:21:18;;;;;;;41.40;19.50;;;;;;;;;;4978621;28;20034;-81
2024/01/09 12:23:43;;;;;;;41.23;19.00;;;;;;;;;;4986446;28;20054;-82
2024/01/09 12:26:09;;;;;;;41.03;17.27;;;;;;;;;;4978010;28;20031;-81
2024/01/09 12:28:34;;;;;;;43.43;18.23;;;;;;;;;;4987472;28;20034;-81
2024/01/09 12:31:03;;;;;;;42.50;18.37;;;;;;;;;;4968983;28;20031;-81
2024/01/09 12:33:29;;;;;;;40.30;18.17;;;;;;;;;;4972160;28;20030;-81
2024/01/09 12:35:54;;;;;;;42.50;18.50;;;;;;;;;;4974000;28;20047;-81
2024/01/09 12:38:22;;;;;;;36.50;18.30;;;;;;;;;;4988773;28;20030;-84
2024/01/09 12:40:56;;;;;;;37.50;18.47;;;;;;;;;;4993394;28;20106;-81
2024/01/09 12:43:22;;;;;;;41.17;18.83;;;;;;;;;;4985837;28;20031;-81
2024/01/09 12:45:47;;;;;;;38.43;17.77;;;;;;;;;;4982481;28;20111;-81
2024/01/09 12:48:12;;;;;;;43.47;18.37;;;;;;;;;;4987549;28;20101;-81
2024/01/09 12:50:37;;;;;;;35.67;17.23;;;;;;;;;;4989910;28;20034;-81
2024/01/09 12:53:03;;;;;;;39.93;18.87;;;;;;;;;;4987354;28;20031;-81
2024/01/09 12:55:29;;;;;;;40.77;19.03;;;;;;;;;;4968067;28;20031;-81
2024/01/09 12:57:55;;;;;;;38.00;18.47;;;;;;;;;;4978908;28;20043;-81
2024/01/09 13:00:21;;;;;;;39.07;17.17;;;;;;;;;;4991200;28;20112;-81
2024/01/09 13:02:46;;;;;;;37.97;17.47;;;;;;;;;;4983881;28;20125;-82
2024/01/09 13:05:12;;;;;;;40.37;19.20;;;;;;;;;;4988949;28;20038;-81
2024/01/09 13:07:37;;;;;;;39.10;18.67;;;;;;;;;;4984577;28;20034;-81
2024/01/09 13:10:02;;;;;;;42.57;20.60;;;;;;;;;;4982522;28;20025;-81
2024/01/09 13:12:27;;;;;;;40.53;18.03;;;;;;;;;;4980997;28;20561;-81
2024/01/09 13:14:53;;;;;;;42.63;18.93;;;;;;;;;;4978978;28;20421;-81
2024/01/09 13:17:19;;;;;;;40.90;20.47;;;;;;;;;;4975997;28;20031;-81
2024/01/09 13:19:44;;;;;;;44.67;19.83;;;;;;;;;;4981108;28;20069;-83
2024/01/09 13:22:11;;;;;;;37.77;17.83;;;;;;;;;;4989876;28;20030;-82
2024/01/09 13:24:36;;;;;;;48.10;22.60;;;;;;;;;;4980893;28;20567;-81
2024/01/09 13:27:03;;;;;;;41.67;20.23;;;;;;;;;;4979062;28;20035;-81
2024/01/09 13:29:28;;;;;;;59.40;26.80;;;;;;;;;;4986319;28;20403;-81
2024/01/09 13:31:54;;;;;;;42.20;21.50;;;;;;;;;;4979416;28;20034;-81
2024/01/09 13:34:19;;;;;;;43.53;19.33;;;;;;;;;;4977686;28;20096;-81
2024/01/09 13:36:44;;;;;;;41.93;20.47;;;;;;;;;;4988925;28;20042;-80
2024/01/09 13:39:14;;;;;;;47.00;22.60;;;;;;;;;;4987391;28;20041;-80
2024/01/09 13:41:39;;;;;;;48.17;21.77;;;;;;;;;;4964074;28;20039;-80
2024/01/09 13:44:05;;;;;;;43.67;19.93;;;;;;;;;;4985805;28;20050;-80
2024/01/09 13:46:30;;;;;;;43.83;20.20;;;;;;;;;;4989377;28;20130;-80
2024/01/09 13:48:55;;;;;;;43.73;22.33;;;;;;;;;;4975712;28;20034;-80
2024/01/09 13:51:22;;;;;;;42.20;20.07;;;;;;;;;;4988146;28;20034;-80
2024/01/09 13:53:47;;;;;;;44.50;20.23;;;;;;;;;;4975759;28;20110;-80
2024/01/09 13:56:15;;;;;;;49.23;22.20;;;;;;;;;;4976363;28;20121;-81
2024/01/09 13:58:41;;;;;;;46.90;20.17;;;;;;;;;;4970076;28;20031;-80
2024/01/09 14:01:06;;;;;;;46.33;20.40;;;;;;;;;;4988763;28;20331;-80
2024/01/09 14:03:31;;;;;;;44.23;19.20;;;;;;;;;;4972956;28;20054;-79
2024/01/09 14:05:58;;;;;;;45.20;21.47;;;;;;;;;;4979058;28;20098;-80
2024/01/09 14:08:23;;;;;;;43.60;20.67;;;;;;;;;;4983547;28;20030;-80
2024/01/09 14:10:48;;;;;;;43.13;19.67;;;;;;;;;;4981266;28;20027;-81
2024/01/09 14:13:13;;;;;;;45.43;20.97;;;;;;;;;;4987450;28;20061;-80
2024/01/09 14:15:39;;;;;;;42.47;20.43;;;;;;;;;;4980375;28;20031;-80
2024/01/09 14:18:08;;;;;;;46.80;21.27;;;;;;;;;;4983675;28;20038;-80
2024/01/09 14:20:33;;;;;;;43.30;19.40;;;;;;;;;;4985999;28;20034;-80